sensor_id;sensor_type;location;lat;lon;timestamp;temperature;humidity
5134;DHT22;2585;48.696;10.066;2023-03-23T00:02:28;6.60;1.00
5134;DHT22;2585;48.696;10.066;2023-03-23T00:04:54;6.60;1.00
5134;DHT22;2585;48.696;10.066;2023-03-23T00:07:22;6.50;1.00
5134;DHT22;2585;48.696;10.066;2023-03-23T00:09:48;6.50;1.00
5134;DHT22;2585;48.696;10.066;2023-03-23T00:12:27;6.60;1.00
5134;DHT22;2585;48.696;10.066;2023-03-23T00:15:04;6.60;1.00
5134;DHT22;2585;48.696;10.066;2023-03-23T00:17:32;6.60;1.00
5134;DHT22;2585;48.696;10.066;2023-03-23T00:20:04;6.70;1.00
5134;DHT22;2585;48.696;10.066;2023-03-23T00:22:31;6.70;1.00
5134;DHT22;2585;48.696;10.066;2023-03-23T00:25:03;6.70;1.00
5134;DHT22;2585;48.696;10.066;2023-03-23T00:27:29;6.70;1.00
5134;DHT22;2585;48.696;10.066;2023-03-23T00:29:55;6.70;1.00
5134;DHT22;2585;48.696;10.066;2023-03-23T00:32:22;6.70;1.00
5134;DHT22;2585;48.696;10.066;2023-03-23T00:34:53;6.70;1.00
5134;DHT22;2585;48.696;10.066;2023-03-23T00:37:19;6.70;90.70
5134;DHT22;2585;48.696;10.066;2023-03-23T00:39:45;6.70;86.00
5134;DHT22;2585;48.696;10.066;2023-03-23T00:42:15;6.90;79.90
5134;DHT22;2585;48.696;10.066;2023-03-23T00:44:42;6.90;74.50
5134;DHT22;2585;48.696;10.066;2023-03-23T00:47:10;6.90;75.20
5134;DHT22;2585;48.696;10.066;2023-03-23T00:49:36;6.90;82.80
5134;DHT22;2585;48.696;10.066;2023-03-23T00:52:03;6.90;90.50
5134;DHT22;2585;48.696;10.066;2023-03-23T00:54:29;6.90;1.00
5134;DHT22;2585;48.696;10.066;2023-03-23T00:56:55;6.90;1.00
5134;DHT22;2585;48.696;10.066;2023-03-23T00:59:21;6.90;1.00
5134;DHT22;2585;48.696;10.066;2023-03-23T01:01:48;7.00;1.00
5134;DHT22;2585;48.696;10.066;2023-03-23T01:04:14;7.00;1.00
5134;DHT22;2585;48.696;10.066;2023-03-23T01:06:42;7.10;1.00
5134;DHT22;2585;48.696;10.066;2023-03-23T01:09:14;7.00;1.00
5134;DHT22;2585;48.696;10.066;2023-03-23T01:11:44;7.10;1.00
5134;DHT22;2585;48.696;10.066;2023-03-23T01:14:11;7.10;1.00
5134;DHT22;2585;48.696;10.066;2023-03-23T01:16:37;7.20;1.00
5134;DHT22;2585;48.696;10.066;2023-03-23T01:19:03;7.20;1.00
5134;DHT22;2585;48.696;10.066;2023-03-23T01:21:28;7.20;1.00
5134;DHT22;2585;48.696;10.066;2023-03-23T01:23:54;7.20;1.00
5134;DHT22;2585;48.696;10.066;2023-03-23T01:26:23;7.20;1.00
5134;DHT22;2585;48.696;10.066;2023-03-23T01:28:50;7.20;1.00
5134;DHT22;2585;48.696;10.066;2023-03-23T01:31:19;7.20;1.00
5134;DHT22;2585;48.696;10.066;2023-03-23T01:33:45;7.20;1.00
5134;DHT22;2585;48.696;10.066;2023-03-23T01:36:13;7.20;1.00
5134;DHT22;2585;48.696;10.066;2023-03-23T01:38:41;7.20;1.00
5134;DHT22;2585;48.696;10.066;2023-03-23T01:41:07;7.30;1.00
5134;DHT22;2585;48.696;10.066;2023-03-23T01:43:33;7.30;1.00
5134;DHT22;2585;48.696;10.066;2023-03-23T01:45:58;7.30;1.00
5134;DHT22;2585;48.696;10.066;2023-03-23T01:48:31;7.30;12.80
5134;DHT22;2585;48.696;10.066;2023-03-23T01:51:03;7.30;37.00
5134;DHT22;2585;48.696;10.066;2023-03-23T01:53:38;7.30;57.30
5134;DHT22;2585;48.696;10.066;2023-03-23T01:56:06;7.30;64.50
5134;DHT22;2585;48.696;10.066;2023-03-23T01:58:35;7.40;66.00
5134;DHT22;2585;48.696;10.066;2023-03-23T02:01:04;7.40;64.30
5134;DHT22;2585;48.696;10.066;2023-03-23T02:03:32;7.40;61.80
5134;DHT22;2585;48.696;10.066;2023-03-23T02:06:00;7.40;63.30
5134;DHT22;2585;48.696;10.066;2023-03-23T02:08:31;7.40;65.10
5134;DHT22;2585;48.696;10.066;2023-03-23T02:10:58;7.40;69.50
5134;DHT22;2585;48.696;10.066;2023-03-23T02:13:24;7.40;72.60
5134;DHT22;2585;48.696;10.066;2023-03-23T02:27:11;7.40;77.30
5134;DHT22;2585;48.696;10.066;2023-03-23T02:29:53;7.40;77.00
5134;DHT22;2585;48.696;10.066;2023-03-23T02:32:27;7.30;77.40
5134;DHT22;2585;48.696;10.066;2023-03-23T02:35:10;7.30;78.00
5134;DHT22;2585;48.696;10.066;2023-03-23T02:37:47;7.30;78.20
5134;DHT22;2585;48.696;10.066;2023-03-23T02:40:21;7.30;78.20
5134;DHT22;2585;48.696;10.066;2023-03-23T02:42:53;7.30;78.40
5134;DHT22;2585;48.696;10.066;2023-03-23T02:45:21;7.40;77.90
5134;DHT22;2585;48.696;10.066;2023-03-23T02:47:50;7.30;77.90
5134;DHT22;2585;48.696;10.066;2023-03-23T02:50:18;7.30;78.40
5134;DHT22;2585;48.696;10.066;2023-03-23T02:52:46;7.30;77.50
5134;DHT22;2585;48.696;10.066;2023-03-23T02:55:14;7.30;77.40
5134;DHT22;2585;48.696;10.066;2023-03-23T02:57:41;7.30;77.70
5134;DHT22;2585;48.696;10.066;2023-03-23T03:00:13;7.40;77.50
5134;DHT22;2585;48.696;10.066;2023-03-23T03:02:44;7.40;77.30
5134;DHT22;2585;48.696;10.066;2023-03-23T03:08:06;7.40;79.30
5134;DHT22;2585;48.696;10.066;2023-03-23T03:11:10;7.40;81.00
5134;DHT22;2585;48.696;10.066;2023-03-23T03:13:55;7.40;82.80
5134;DHT22;2585;48.696;10.066;2023-03-23T03:16:45;7.30;84.60
5134;DHT22;2585;48.696;10.066;2023-03-23T03:21:45;7.30;85.30
5134;DHT22;2585;48.696;10.066;2023-03-23T03:24:15;7.30;85.30
5134;DHT22;2585;48.696;10.066;2023-03-23T03:26:46;7.30;84.90
5134;DHT22;2585;48.696;10.066;2023-03-23T03:29:18;7.30;84.70
5134;DHT22;2585;48.696;10.066;2023-03-23T03:31:46;7.30;84.60
5134;DHT22;2585;48.696;10.066;2023-03-23T03:34:14;7.30;84.20
5134;DHT22;2585;48.696;10.066;2023-03-23T03:36:44;7.20;84.40
5134;DHT22;2585;48.696;10.066;2023-03-23T03:39:12;7.20;84.30
5134;DHT22;2585;48.696;10.066;2023-03-23T03:41:40;7.30;84.40
5134;DHT22;2585;48.696;10.066;2023-03-23T03:44:07;7.30;84.60
5134;DHT22;2585;48.696;10.066;2023-03-23T03:46:36;7.20;84.50
5134;DHT22;2585;48.696;10.066;2023-03-23T03:49:05;7.30;84.50
5134;DHT22;2585;48.696;10.066;2023-03-23T03:51:31;7.30;84.80
5134;DHT22;2585;48.696;10.066;2023-03-23T03:53:57;7.30;86.00
5134;DHT22;2585;48.696;10.066;2023-03-23T03:56:24;7.30;86.60
5134;DHT22;2585;48.696;10.066;2023-03-23T03:58:50;7.30;87.30
5134;DHT22;2585;48.696;10.066;2023-03-23T04:01:17;7.30;87.60
5134;DHT22;2585;48.696;10.066;2023-03-23T04:03:44;7.40;87.80
5134;DHT22;2585;48.696;10.066;2023-03-23T04:06:10;7.40;87.90
5134;DHT22;2585;48.696;10.066;2023-03-23T04:08:38;7.40;88.00
5134;DHT22;2585;48.696;10.066;2023-03-23T04:11:07;7.30;88.10
5134;DHT22;2585;48.696;10.066;2023-03-23T04:13:34;7.40;88.40
5134;DHT22;2585;48.696;10.066;2023-03-23T04:16:00;7.40;88.70
5134;DHT22;2585;48.696;10.066;2023-03-23T04:18:26;7.40;88.90
5134;DHT22;2585;48.696;10.066;2023-03-23T04:20:52;7.40;89.10
5134;DHT22;2585;48.696;10.066;2023-03-23T04:23:19;7.40;89.30
5134;DHT22;2585;48.696;10.066;2023-03-23T04:25:51;7.40;89.40
5134;DHT22;2585;48.696;10.066;2023-03-23T04:28:19;7.40;89.50
5134;DHT22;2585;48.696;10.066;2023-03-23T04:30:50;7.40;89.60
5134;DHT22;2585;48.696;10.066;2023-03-23T04:33:28;7.40;89.60
5134;DHT22;2585;48.696;10.066;2023-03-23T04:35:58;7.40;89.70
5134;DHT22;2585;48.696;10.066;2023-03-23T04:38:27;7.50;90.00
5134;DHT22;2585;48.696;10.066;2023-03-23T04:40:53;7.60;90.00
5134;DHT22;2585;48.696;10.066;2023-03-23T04:43:21;7.60;90.00
5134;DHT22;2585;48.696;10.066;2023-03-23T04:45:58;7.60;89.80
5134;DHT22;2585;48.696;10.066;2023-03-23T04:48:27;7.60;89.70
5134;DHT22;2585;48.696;10.066;2023-03-23T04:50:53;7.60;89.70
5134;DHT22;2585;48.696;10.066;2023-03-23T04:53:19;7.60;89.70
5134;DHT22;2585;48.696;10.066;2023-03-23T04:55:47;7.60;89.90
5134;DHT22;2585;48.696;10.066;2023-03-23T04:58:13;7.60;90.00
5134;DHT22;2585;48.696;10.066;2023-03-23T05:00:40;7.60;90.00
5134;DHT22;2585;48.696;10.066;2023-03-23T05:03:10;7.60;90.10
5134;DHT22;2585;48.696;10.066;2023-03-23T05:05:37;7.60;90.10
5134;DHT22;2585;48.696;10.066;2023-03-23T05:08:03;7.60;90.10
5134;DHT22;2585;48.696;10.066;2023-03-23T05:10:28;7.60;90.00
5134;DHT22;2585;48.696;10.066;2023-03-23T05:12:54;7.70;90.10
5134;DHT22;2585;48.696;10.066;2023-03-23T05:15:20;7.60;90.00
5134;DHT22;2585;48.696;10.066;2023-03-23T05:17:46;7.70;90.10
5134;DHT22;2585;48.696;10.066;2023-03-23T05:20:16;7.70;90.10
5134;DHT22;2585;48.696;10.066;2023-03-23T05:22:49;7.90;89.30
5134;DHT22;2585;48.696;10.066;2023-03-23T05:25:16;8.10;85.20
5134;DHT22;2585;48.696;10.066;2023-03-23T05:27:46;8.30;69.50
5134;DHT22;2585;48.696;10.066;2023-03-23T05:30:15;8.50;1.00
5134;DHT22;2585;48.696;10.066;2023-03-23T05:32:43;8.50;1.00
5134;DHT22;2585;48.696;10.066;2023-03-23T05:35:11;8.60;1.00
5134;DHT22;2585;48.696;10.066;2023-03-23T05:37:38;8.50;1.00
5134;DHT22;2585;48.696;10.066;2023-03-23T05:40:05;8.60;1.00
5134;DHT22;2585;48.696;10.066;2023-03-23T05:42:35;8.60;1.00
5134;DHT22;2585;48.696;10.066;2023-03-23T05:45:02;8.50;1.00
5134;DHT22;2585;48.696;10.066;2023-03-23T05:47:28;8.50;1.00
5134;DHT22;2585;48.696;10.066;2023-03-23T05:49:54;8.60;1.00
5134;DHT22;2585;48.696;10.066;2023-03-23T05:52:20;8.60;1.00
5134;DHT22;2585;48.696;10.066;2023-03-23T05:54:46;8.60;1.00
5134;DHT22;2585;48.696;10.066;2023-03-23T05:57:12;8.60;1.00
5134;DHT22;2585;48.696;10.066;2023-03-23T05:59:38;8.70;1.00
5134;DHT22;2585;48.696;10.066;2023-03-23T06:02:04;8.70;1.00
5134;DHT22;2585;48.696;10.066;2023-03-23T06:04:31;8.70;1.00
5134;DHT22;2585;48.696;10.066;2023-03-23T06:07:00;8.70;1.00
5134;DHT22;2585;48.696;10.066;2023-03-23T06:09:27;8.70;1.00
5134;DHT22;2585;48.696;10.066;2023-03-23T06:11:53;8.70;1.00
5134;DHT22;2585;48.696;10.066;2023-03-23T06:14:19;8.90;1.00
5134;DHT22;2585;48.696;10.066;2023-03-23T06:16:45;8.90;1.00
5134;DHT22;2585;48.696;10.066;2023-03-23T06:19:10;8.90;1.00
5134;DHT22;2585;48.696;10.066;2023-03-23T06:21:37;9.00;1.00
5134;DHT22;2585;48.696;10.066;2023-03-23T06:24:03;9.00;1.00
5134;DHT22;2585;48.696;10.066;2023-03-23T06:26:34;9.00;1.00
5134;DHT22;2585;48.696;10.066;2023-03-23T06:29:02;9.00;1.00
5134;DHT22;2585;48.696;10.066;2023-03-23T06:31:29;9.10;1.00
5134;DHT22;2585;48.696;10.066;2023-03-23T06:33:55;9.10;1.00
5134;DHT22;2585;48.696;10.066;2023-03-23T06:36:20;9.30;1.00
5134;DHT22;2585;48.696;10.066;2023-03-23T06:38:48;9.30;91.80
5134;DHT22;2585;48.696;10.066;2023-03-23T06:41:14;9.40;74.60
5134;DHT22;2585;48.696;10.066;2023-03-23T06:43:39;9.50;1.00
5134;DHT22;2585;48.696;10.066;2023-03-23T06:46:06;9.70;49.50
5134;DHT22;2585;48.696;10.066;2023-03-23T06:48:32;9.80;1.00
5134;DHT22;2585;48.696;10.066;2023-03-23T06:50:58;9.90;87.30
5134;DHT22;2585;48.696;10.066;2023-03-23T06:53:24;10.10;90.40
5134;DHT22;2585;48.696;10.066;2023-03-23T06:55:50;10.20;41.90
5134;DHT22;2585;48.696;10.066;2023-03-23T06:58:15;10.50;1.00
5134;DHT22;2585;48.696;10.066;2023-03-23T07:00:41;10.60;60.20
5134;DHT22;2585;48.696;10.066;2023-03-23T07:03:08;10.80;92.00
5134;DHT22;2585;48.696;10.066;2023-03-23T07:05:34;10.90;69.70
5134;DHT22;2585;48.696;10.066;2023-03-23T07:08:04;10.90;67.80
5134;DHT22;2585;48.696;10.066;2023-03-23T07:10:30;11.20;1.00
5134;DHT22;2585;48.696;10.066;2023-03-23T07:12:57;11.40;1.00
5134;DHT22;2585;48.696;10.066;2023-03-23T07:15:24;11.60;86.30
5134;DHT22;2585;48.696;10.066;2023-03-23T07:17:50;11.70;66.70
5134;DHT22;2585;48.696;10.066;2023-03-23T07:20:16;11.80;52.90
5134;DHT22;2585;48.696;10.066;2023-03-23T07:22:42;11.80;17.00
5134;DHT22;2585;48.696;10.066;2023-03-23T07:25:08;11.70;1.00
5134;DHT22;2585;48.696;10.066;2023-03-23T07:27:35;11.80;1.00
5134;DHT22;2585;48.696;10.066;2023-03-23T07:30:01;11.90;1.00
5134;DHT22;2585;48.696;10.066;2023-03-23T07:32:27;12.00;1.00
5134;DHT22;2585;48.696;10.066;2023-03-23T07:34:53;12.00;1.00
5134;DHT22;2585;48.696;10.066;2023-03-23T07:37:19;12.10;1.00
5134;DHT22;2585;48.696;10.066;2023-03-23T07:39:44;12.20;1.00
5134;DHT22;2585;48.696;10.066;2023-03-23T07:42:10;12.30;1.00
5134;DHT22;2585;48.696;10.066;2023-03-23T07:44:36;12.40;1.00
5134;DHT22;2585;48.696;10.066;2023-03-23T07:47:02;12.40;83.30
5134;DHT22;2585;48.696;10.066;2023-03-23T07:49:28;12.50;80.50
5134;DHT22;2585;48.696;10.066;2023-03-23T07:51:56;12.50;76.70
5134;DHT22;2585;48.696;10.066;2023-03-23T07:54:23;12.50;68.40
5134;DHT22;2585;48.696;10.066;2023-03-23T07:56:49;12.50;64.90
5134;DHT22;2585;48.696;10.066;2023-03-23T07:59:15;12.50;61.50
5134;DHT22;2585;48.696;10.066;2023-03-23T08:01:40;12.60;60.40
5134;DHT22;2585;48.696;10.066;2023-03-23T08:04:06;12.60;43.00
5134;DHT22;2585;48.696;10.066;2023-03-23T08:06:34;12.70;32.20
5134;DHT22;2585;48.696;10.066;2023-03-23T08:09:00;12.70;33.60
5134;DHT22;2585;48.696;10.066;2023-03-23T08:11:33;12.70;10.70
5134;DHT22;2585;48.696;10.066;2023-03-23T08:13:59;12.60;12.70
5134;DHT22;2585;48.696;10.066;2023-03-23T08:16:25;12.60;23.10
5134;DHT22;2585;48.696;10.066;2023-03-23T08:18:51;12.60;2.30
5134;DHT22;2585;48.696;10.066;2023-03-23T08:21:17;12.60;3.90
5134;DHT22;2585;48.696;10.066;2023-03-23T08:23:43;12.60;8.00
5134;DHT22;2585;48.696;10.066;2023-03-23T08:26:09;12.70;1.00
5134;DHT22;2585;48.696;10.066;2023-03-23T08:28:36;12.90;1.00
5134;DHT22;2585;48.696;10.066;2023-03-23T08:31:07;13.00;1.00
5134;DHT22;2585;48.696;10.066;2023-03-23T08:33:33;13.10;1.00
5134;DHT22;2585;48.696;10.066;2023-03-23T08:35:59;13.20;1.00
5134;DHT22;2585;48.696;10.066;2023-03-23T08:38:26;13.30;1.00
5134;DHT22;2585;48.696;10.066;2023-03-23T08:40:58;13.30;1.00
5134;DHT22;2585;48.696;10.066;2023-03-23T08:43:24;13.30;1.00
5134;DHT22;2585;48.696;10.066;2023-03-23T08:45:50;13.40;1.00
5134;DHT22;2585;48.696;10.066;2023-03-23T08:48:17;13.40;1.00
5134;DHT22;2585;48.696;10.066;2023-03-23T08:50:43;13.50;1.00
5134;DHT22;2585;48.696;10.066;2023-03-23T08:53:09;13.60;1.00
5134;DHT22;2585;48.696;10.066;2023-03-23T08:55:35;13.70;91.50
5134;DHT22;2585;48.696;10.066;2023-03-23T08:58:01;13.90;89.30
5134;DHT22;2585;48.696;10.066;2023-03-23T09:00:27;14.00;88.50
5134;DHT22;2585;48.696;10.066;2023-03-23T09:02:53;14.10;85.20
5134;DHT22;2585;48.696;10.066;2023-03-23T09:05:22;14.30;82.00
5134;DHT22;2585;48.696;10.066;2023-03-23T09:07:51;14.50;79.20
5134;DHT22;2585;48.696;10.066;2023-03-23T09:10:18;14.70;76.10
5134;DHT22;2585;48.696;10.066;2023-03-23T09:12:45;14.80;68.90
5134;DHT22;2585;48.696;10.066;2023-03-23T09:15:13;15.10;71.60
5134;DHT22;2585;48.696;10.066;2023-03-23T09:17:43;15.50;70.00
5134;DHT22;2585;48.696;10.066;2023-03-23T09:20:12;15.70;61.80
5134;DHT22;2585;48.696;10.066;2023-03-23T09:22:44;16.00;65.00
5134;DHT22;2585;48.696;10.066;2023-03-23T09:25:11;16.20;38.90
5134;DHT22;2585;48.696;10.066;2023-03-23T09:27:38;16.20;36.30
5134;DHT22;2585;48.696;10.066;2023-03-23T09:30:11;16.20;34.10
5134;DHT22;2585;48.696;10.066;2023-03-23T09:32:38;16.00;19.20
5134;DHT22;2585;48.696;10.066;2023-03-23T09:35:06;15.90;15.50
5134;DHT22;2585;48.696;10.066;2023-03-23T09:37:33;15.80;13.30
5134;DHT22;2585;48.696;10.066;2023-03-23T09:40:02;15.60;12.20
5134;DHT22;2585;48.696;10.066;2023-03-23T09:42:44;15.40;12.90
5134;DHT22;2585;48.696;10.066;2023-03-23T09:45:15;15.30;1.00
5134;DHT22;2585;48.696;10.066;2023-03-23T09:48:03;15.10;6.40
5134;DHT22;2585;48.696;10.066;2023-03-23T09:50:32;15.00;17.10
5134;DHT22;2585;48.696;10.066;2023-03-23T09:53:24;14.90;17.50
5134;DHT22;2585;48.696;10.066;2023-03-23T09:55:49;14.90;23.70
5134;DHT22;2585;48.696;10.066;2023-03-23T09:58:27;14.80;25.10
5134;DHT22;2585;48.696;10.066;2023-03-23T10:01:05;14.70;30.00
5134;DHT22;2585;48.696;10.066;2023-03-23T10:03:39;14.60;40.00
5134;DHT22;2585;48.696;10.066;2023-03-23T10:06:05;14.60;34.00
5134;DHT22;2585;48.696;10.066;2023-03-23T10:08:33;14.50;30.80
5134;DHT22;2585;48.696;10.066;2023-03-23T10:11:04;14.50;44.20
5134;DHT22;2585;48.696;10.066;2023-03-23T10:16:22;14.40;42.30
5134;DHT22;2585;48.696;10.066;2023-03-23T10:21:41;14.30;56.80
5134;DHT22;2585;48.696;10.066;2023-03-23T10:24:15;14.30;51.60
5134;DHT22;2585;48.696;10.066;2023-03-23T10:29:36;14.40;60.60
5134;DHT22;2585;48.696;10.066;2023-03-23T10:35:14;14.40;44.10
5134;DHT22;2585;48.696;10.066;2023-03-23T10:37:49;14.30;57.80
5134;DHT22;2585;48.696;10.066;2023-03-23T10:40:19;14.20;60.00
5134;DHT22;2585;48.696;10.066;2023-03-23T10:42:46;14.10;60.90
5134;DHT22;2585;48.696;10.066;2023-03-23T10:45:20;14.00;63.30
5134;DHT22;2585;48.696;10.066;2023-03-23T10:50:45;13.90;65.20
5134;DHT22;2585;48.696;10.066;2023-03-23T10:53:28;13.90;63.80
5134;DHT22;2585;48.696;10.066;2023-03-23T10:55:55;13.90;61.70
5134;DHT22;2585;48.696;10.066;2023-03-23T10:58:30;13.90;66.50
5134;DHT22;2585;48.696;10.066;2023-03-23T11:00:58;13.90;64.80
5134;DHT22;2585;48.696;10.066;2023-03-23T11:03:47;14.00;66.40
5134;DHT22;2585;48.696;10.066;2023-03-23T11:06:27;14.10;63.80
5134;DHT22;2585;48.696;10.066;2023-03-23T11:09:00;14.20;66.90
5134;DHT22;2585;48.696;10.066;2023-03-23T11:11:29;14.10;64.00
5134;DHT22;2585;48.696;10.066;2023-03-23T11:14:15;14.10;62.90
5134;DHT22;2585;48.696;10.066;2023-03-23T11:16:53;14.20;62.40
5134;DHT22;2585;48.696;10.066;2023-03-23T11:19:31;14.30;64.70
5134;DHT22;2585;48.696;10.066;2023-03-23T11:24:34;14.40;63.30
5134;DHT22;2585;48.696;10.066;2023-03-23T11:27:00;14.50;64.80
5134;DHT22;2585;48.696;10.066;2023-03-23T11:29:29;14.40;60.90
5134;DHT22;2585;48.696;10.066;2023-03-23T11:34:30;14.40;63.00
5134;DHT22;2585;48.696;10.066;2023-03-23T11:36:58;14.50;65.40
5134;DHT22;2585;48.696;10.066;2023-03-23T11:39:29;14.60;67.70
5134;DHT22;2585;48.696;10.066;2023-03-23T11:41:58;14.50;62.30
5134;DHT22;2585;48.696;10.066;2023-03-23T11:44:40;14.60;68.00
5134;DHT22;2585;48.696;10.066;2023-03-23T11:47:36;14.60;64.40
5134;DHT22;2585;48.696;10.066;2023-03-23T11:50:14;14.60;65.90
5134;DHT22;2585;48.696;10.066;2023-03-23T11:58:19;14.90;64.00
5134;DHT22;2585;48.696;10.066;2023-03-23T12:00:54;15.00;66.50
5134;DHT22;2585;48.696;10.066;2023-03-23T12:09:25;15.50;72.10
5134;DHT22;2585;48.696;10.066;2023-03-23T12:18:32;16.30;48.20
5134;DHT22;2585;48.696;10.066;2023-03-23T12:20:38;16.50;30.60
5134;DHT22;2585;48.696;10.066;2023-03-23T12:28:21;16.40;20.00
5134;DHT22;2585;48.696;10.066;2023-03-23T12:31:01;16.70;18.10
5134;DHT22;2585;48.696;10.066;2023-03-23T12:33:49;16.70;5.80
5134;DHT22;2585;48.696;10.066;2023-03-23T12:45:07;16.70;1.00
5134;DHT22;2585;48.696;10.066;2023-03-23T12:50:18;17.00;1.00
5134;DHT22;2585;48.696;10.066;2023-03-23T12:53:11;17.30;1.00
5134;DHT22;2585;48.696;10.066;2023-03-23T12:55:48;17.40;1.00
5134;DHT22;2585;48.696;10.066;2023-03-23T12:58:26;17.30;1.00
5134;DHT22;2585;48.696;10.066;2023-03-23T13:01:15;17.00;1.00
5134;DHT22;2585;48.696;10.066;2023-03-23T13:03:56;16.80;1.00
5134;DHT22;2585;48.696;10.066;2023-03-23T13:06:38;16.50;1.00
5134;DHT22;2585;48.696;10.066;2023-03-23T13:09:18;16.40;1.00
5134;DHT22;2585;48.696;10.066;2023-03-23T13:11:44;16.40;1.00
5134;DHT22;2585;48.696;10.066;2023-03-23T13:14:36;16.50;1.00
5134;DHT22;2585;48.696;10.066;2023-03-23T13:23:31;16.60;1.00
5134;DHT22;2585;48.696;10.066;2023-03-23T13:26:13;16.40;1.00
5134;DHT22;2585;48.696;10.066;2023-03-23T13:28:59;16.20;1.00
5134;DHT22;2585;48.696;10.066;2023-03-23T13:31:28;16.10;1.00
5134;DHT22;2585;48.696;10.066;2023-03-23T13:34:18;16.00;1.00
5134;DHT22;2585;48.696;10.066;2023-03-23T13:36:57;15.90;1.00
5134;DHT22;2585;48.696;10.066;2023-03-23T13:39:35;15.80;1.00
5134;DHT22;2585;48.696;10.066;2023-03-23T13:42:28;15.90;4.30
5134;DHT22;2585;48.696;10.066;2023-03-23T13:47:38;15.90;9.50
5134;DHT22;2585;48.696;10.066;2023-03-23T14:05:36;15.90;39.00
5134;DHT22;2585;48.696;10.066;2023-03-23T14:10:48;16.00;19.20
5134;DHT22;2585;48.696;10.066;2023-03-23T14:16:01;16.00;13.10
5134;DHT22;2585;48.696;10.066;2023-03-23T14:18:52;16.10;1.00
5134;DHT22;2585;48.696;10.066;2023-03-23T14:21:34;15.90;1.00
5134;DHT22;2585;48.696;10.066;2023-03-23T14:24:10;15.90;1.00
5134;DHT22;2585;48.696;10.066;2023-03-23T14:26:37;16.00;1.00
5134;DHT22;2585;48.696;10.066;2023-03-23T14:29:05;15.90;1.00
5134;DHT22;2585;48.696;10.066;2023-03-23T14:31:31;15.90;1.00
5134;DHT22;2585;48.696;10.066;2023-03-23T14:34:04;16.00;1.00
5134;DHT22;2585;48.696;10.066;2023-03-23T14:36:33;16.00;1.00
5134;DHT22;2585;48.696;10.066;2023-03-23T14:39:23;16.20;1.00
5134;DHT22;2585;48.696;10.066;2023-03-23T14:41:53;16.10;1.00
5134;DHT22;2585;48.696;10.066;2023-03-23T14:44:30;16.00;1.00
5134;DHT22;2585;48.696;10.066;2023-03-23T14:46:58;16.00;1.00
5134;DHT22;2585;48.696;10.066;2023-03-23T14:49:31;16.00;1.00
5134;DHT22;2585;48.696;10.066;2023-03-23T14:52:10;16.00;1.00
5134;DHT22;2585;48.696;10.066;2023-03-23T14:54:37;16.10;1.00
5134;DHT22;2585;48.696;10.066;2023-03-23T14:57:19;16.00;1.00
5134;DHT22;2585;48.696;10.066;2023-03-23T14:59:48;16.00;1.00
5134;DHT22;2585;48.696;10.066;2023-03-23T15:04:59;15.90;1.00
5134;DHT22;2585;48.696;10.066;2023-03-23T15:07:33;15.80;1.00
5134;DHT22;2585;48.696;10.066;2023-03-23T15:10:00;15.80;1.00
5134;DHT22;2585;48.696;10.066;2023-03-23T15:12:29;15.60;1.00
5134;DHT22;2585;48.696;10.066;2023-03-23T15:15:05;15.60;1.00
5134;DHT22;2585;48.696;10.066;2023-03-23T15:17:37;15.60;1.00
5134;DHT22;2585;48.696;10.066;2023-03-23T15:20:26;15.60;1.00
5134;DHT22;2585;48.696;10.066;2023-03-23T15:22:52;15.60;1.00
5134;DHT22;2585;48.696;10.066;2023-03-23T15:25:28;15.60;1.00
5134;DHT22;2585;48.696;10.066;2023-03-23T15:27:57;15.60;1.00
5134;DHT22;2585;48.696;10.066;2023-03-23T15:32:54;15.60;1.00
5134;DHT22;2585;48.696;10.066;2023-03-23T15:35:23;15.60;1.00
5134;DHT22;2585;48.696;10.066;2023-03-23T15:38:05;15.60;1.00
5134;DHT22;2585;48.696;10.066;2023-03-23T15:40:37;15.60;1.00
5134;DHT22;2585;48.696;10.066;2023-03-23T15:46:03;15.60;1.00
5134;DHT22;2585;48.696;10.066;2023-03-23T15:51:23;15.50;1.00
5134;DHT22;2585;48.696;10.066;2023-03-23T15:53:54;15.50;1.00
5134;DHT22;2585;48.696;10.066;2023-03-23T15:56:20;15.50;1.00
5134;DHT22;2585;48.696;10.066;2023-03-23T15:58:46;15.40;1.00
5134;DHT22;2585;48.696;10.066;2023-03-23T16:01:26;15.40;1.00
5134;DHT22;2585;48.696;10.066;2023-03-23T16:04:04;15.40;1.00
5134;DHT22;2585;48.696;10.066;2023-03-23T16:06:33;15.30;1.00
5134;DHT22;2585;48.696;10.066;2023-03-23T16:09:01;15.20;1.00
5134;DHT22;2585;48.696;10.066;2023-03-23T16:11:30;15.10;1.00
5134;DHT22;2585;48.696;10.066;2023-03-23T16:13:58;15.10;1.00
5134;DHT22;2585;48.696;10.066;2023-03-23T16:16:33;15.00;1.00
5134;DHT22;2585;48.696;10.066;2023-03-23T16:19:01;14.90;1.00
5134;DHT22;2585;48.696;10.066;2023-03-23T16:21:28;14.90;1.00
5134;DHT22;2585;48.696;10.066;2023-03-23T16:23:56;14.80;1.00
5134;DHT22;2585;48.696;10.066;2023-03-23T16:26:24;14.90;1.00
5134;DHT22;2585;48.696;10.066;2023-03-23T16:28:50;14.80;1.00
5134;DHT22;2585;48.696;10.066;2023-03-23T16:31:25;14.70;1.00
5134;DHT22;2585;48.696;10.066;2023-03-23T16:33:52;14.70;3.70
5134;DHT22;2585;48.696;10.066;2023-03-23T16:36:19;14.60;11.40
5134;DHT22;2585;48.696;10.066;2023-03-23T16:38:46;14.60;17.20
5134;DHT22;2585;48.696;10.066;2023-03-23T16:41:16;14.50;22.70
5134;DHT22;2585;48.696;10.066;2023-03-23T16:43:43;14.50;32.20
5134;DHT22;2585;48.696;10.066;2023-03-23T16:46:11;14.50;48.20
5134;DHT22;2585;48.696;10.066;2023-03-23T16:48:39;14.40;61.20
5134;DHT22;2585;48.696;10.066;2023-03-23T16:51:06;14.40;65.40
5134;DHT22;2585;48.696;10.066;2023-03-23T16:53:33;14.40;68.70
5134;DHT22;2585;48.696;10.066;2023-03-23T16:56:02;14.40;72.80
5134;DHT22;2585;48.696;10.066;2023-03-23T16:58:28;14.40;74.00
5134;DHT22;2585;48.696;10.066;2023-03-23T17:00:55;14.30;76.50
5134;DHT22;2585;48.696;10.066;2023-03-23T17:03:22;14.30;79.40
5134;DHT22;2585;48.696;10.066;2023-03-23T17:05:50;14.30;83.00
5134;DHT22;2585;48.696;10.066;2023-03-23T17:08:19;14.30;90.20
5134;DHT22;2585;48.696;10.066;2023-03-23T17:10:46;14.20;1.00
5134;DHT22;2585;48.696;10.066;2023-03-23T17:13:13;14.10;1.00
5134;DHT22;2585;48.696;10.066;2023-03-23T17:15:42;14.00;1.00
5134;DHT22;2585;48.696;10.066;2023-03-23T17:18:13;13.80;62.60
5134;DHT22;2585;48.696;10.066;2023-03-23T17:20:40;13.80;91.40
5134;DHT22;2585;48.696;10.066;2023-03-23T17:23:06;13.70;1.00
5134;DHT22;2585;48.696;10.066;2023-03-23T17:25:33;13.60;1.00
5134;DHT22;2585;48.696;10.066;2023-03-23T17:28:00;13.60;1.00
5134;DHT22;2585;48.696;10.066;2023-03-23T17:30:31;13.50;1.00
5134;DHT22;2585;48.696;10.066;2023-03-23T17:32:58;13.40;5.80
5134;DHT22;2585;48.696;10.066;2023-03-23T17:35:25;13.40;10.90
5134;DHT22;2585;48.696;10.066;2023-03-23T17:37:51;13.40;60.10
5134;DHT22;2585;48.696;10.066;2023-03-23T17:40:18;13.20;89.50
5134;DHT22;2585;48.696;10.066;2023-03-23T17:42:45;13.20;90.30
5134;DHT22;2585;48.696;10.066;2023-03-23T17:45:12;13.10;1.00
5134;DHT22;2585;48.696;10.066;2023-03-23T17:47:38;13.10;1.00
5134;DHT22;2585;48.696;10.066;2023-03-23T17:50:07;13.10;89.80
5134;DHT22;2585;48.696;10.066;2023-03-23T17:52:38;13.10;87.20
5134;DHT22;2585;48.696;10.066;2023-03-23T17:55:06;13.00;91.30
5134;DHT22;2585;48.696;10.066;2023-03-23T17:57:33;13.00;92.20
5134;DHT22;2585;48.696;10.066;2023-03-23T18:00:01;12.90;1.00
5134;DHT22;2585;48.696;10.066;2023-03-23T18:02:28;12.80;1.00
5134;DHT22;2585;48.696;10.066;2023-03-23T18:04:58;12.80;1.00
5134;DHT22;2585;48.696;10.066;2023-03-23T18:07:25;12.80;1.00
5134;DHT22;2585;48.696;10.066;2023-03-23T18:09:57;12.80;1.00